createdAt,value
2022-09-18T00:00:57.645Z,-23312.81
2022-09-18T00:03:46.453Z,-23308.69
2022-09-18T00:06:36.980Z,-23305.06
2022-09-18T00:09:24.046Z,-23307.97
2022-09-18T00:12:10.998Z,-23305.31
2022-09-18T00:14:58.102Z,-23298.28
2022-09-18T00:17:44.946Z,-23301.19
2022-09-18T00:20:34.675Z,-23305.06
2022-09-18T00:23:21.655Z,-23310.88
2022-09-18T00:26:09.909Z,-23311.34
2022-09-18T00:28:58.245Z,-23316.19
2022-09-18T00:31:45.590Z,-23310.63
2022-09-18T00:34:32.485Z,-23305.31
2022-09-18T00:37:19.348Z,-23306.75
2022-09-18T00:40:06.717Z,-23309.41
2022-09-18T00:42:53.606Z,-23300.94
2022-09-18T00:45:40.466Z,-23301.19
2022-09-18T00:48:37.435Z,-23301.66
2022-09-18T00:51:25.825Z,-23302.63
2022-09-18T00:54:34.845Z,-23294.41
2022-09-18T00:57:29.544Z,-23293.91
2022-09-18T01:00:16.469Z,-23288.09
2022-09-18T01:03:04.412Z,-23278.91
2022-09-18T01:05:54.145Z,-23277.94
2022-09-18T01:08:44.332Z,-23269.69
2022-09-18T01:11:56.201Z,-23262.91
2022-09-18T01:14:50.098Z,-23268.25
2022-09-18T01:17:45.857Z,-23271.41
2022-09-18T01:21:05.618Z,-23262.44
2022-09-18T01:23:55.181Z,-23267.75
2022-09-18T01:26:54.927Z,-23261.47
2022-09-18T01:29:59.329Z,-23262.91
2022-09-18T01:32:52.763Z,-23265.81
2022-09-18T01:35:46.336Z,-23267.03
2022-09-18T01:38:41.692Z,-23268.25
2022-09-18T01:41:30.105Z,-23258.06
2022-09-18T01:44:20.897Z,-23274.53
2022-09-18T01:47:11.296Z,-23273.31
2022-09-18T01:50:00.820Z,-23273.56
2022-09-18T01:53:11.842Z,-23270.19
2022-09-18T01:56:25.791Z,-23268.97
2022-09-18T01:59:19.507Z,-23267.75
2022-09-18T02:02:14.110Z,-23270.44
2022-09-18T02:05:05.183Z,-23269.69
2022-09-18T02:07:59.946Z,-23275.25
2022-09-18T02:11:03.173Z,-23272.59
2022-09-18T02:13:53.466Z,-23269.22
2022-09-18T02:16:53.909Z,-23269.94
2022-09-18T02:19:49.304Z,-23266.56
2022-09-18T02:22:38.214Z,-23259.53
2022-09-18T02:25:31.665Z,-23261.94
2022-09-18T02:28:21.882Z,-23264.38
2022-09-18T02:31:08.810Z,-23254.22
2022-09-18T02:33:55.672Z,-23265.81
2022-09-18T02:36:51.680Z,-23264.84
2022-09-18T02:40:28.195Z,-23261.47
2022-09-18T02:43:40.334Z,-23250.56
2022-09-18T02:46:53.301Z,-23255.41
2022-09-18T02:50:09.823Z,-23252.75
2022-09-18T02:53:10.744Z,-23251.06
2022-09-18T02:56:02.602Z,-23248.63
2022-09-18T02:59:03.304Z,-23251.28
2022-09-18T03:01:52.108Z,-23246.22
2022-09-18T03:04:39.161Z,-23253.72
2022-09-18T03:07:26.041Z,-23252.75
2022-09-18T03:10:13.123Z,-23254.94
2022-09-18T03:12:59.977Z,-23247.66
2022-09-18T03:15:47.063Z,-23244.50
2022-09-18T03:18:33.939Z,-23242.09
2022-09-18T03:21:21.010Z,-23238.47
2022-09-18T03:24:07.913Z,-23236.78
2022-09-18T03:26:54.805Z,-23226.13
2022-09-18T03:29:41.716Z,-23229.28
2022-09-18T03:32:28.537Z,-23225.41
2022-09-18T03:35:15.550Z,-23234.34
2022-09-18T03:38:02.420Z,-23241.59
2022-09-18T03:40:49.460Z,-23239.19
2022-09-18T03:43:36.342Z,-23239.69
2022-09-18T03:46:24.161Z,-23239.19
2022-09-18T03:49:11.045Z,-23236.53
2022-09-18T03:51:57.891Z,-23233.38
2022-09-18T03:54:45.187Z,-23240.16
2022-09-18T03:57:32.120Z,-23239.19
2022-09-18T04:00:19.548Z,-23238.94
2022-09-18T04:03:06.545Z,-23230.97
2022-09-18T04:05:53.545Z,-23237.25
2022-09-18T04:08:40.407Z,-23242.81
2022-09-18T04:11:27.253Z,-23249.59
2022-09-18T04:14:14.823Z,-23243.56
2022-09-18T04:17:01.714Z,-23245.97
2022-09-18T04:19:52.809Z,-23246.22
2022-09-18T04:22:40.369Z,-23245.72
2022-09-18T04:25:27.298Z,-23245.97
2022-09-18T04:28:14.169Z,-23247.44
2022-09-18T04:31:01.145Z,-23238.94
2022-09-18T04:33:48.402Z,-23232.91
2022-09-18T04:36:36.114Z,-23237.50
2022-09-18T04:39:23.031Z,-23238.72
2022-09-18T04:42:09.898Z,-23230.22
2022-09-18T04:44:56.785Z,-23235.81
2022-09-18T04:47:45.880Z,-23242.81
2022-09-18T04:50:33.876Z,-23242.09
2022-09-18T04:53:20.908Z,-23238.47
2022-09-18T04:56:07.728Z,-23236.28
2022-09-18T04:58:54.717Z,-23236.78
2022-09-18T05:01:41.726Z,-23238.72
2022-09-18T05:04:28.593Z,-23235.09
2022-09-18T05:07:15.482Z,-23233.63
2022-09-18T05:10:02.403Z,-23238.22
2022-09-18T05:12:49.571Z,-23239.19
2022-09-18T05:15:36.425Z,-23235.31
2022-09-18T05:18:24.155Z,-23230.22
2022-09-18T05:21:11.007Z,-23229.28
2022-09-18T05:23:57.859Z,-23229.50
2022-09-18T05:26:45.320Z,-23225.41
2022-09-18T05:29:32.136Z,-23214.25
2022-09-18T05:32:20.387Z,-23220.31
2022-09-18T05:35:07.243Z,-23203.38
2022-09-18T05:37:55.341Z,-23199.97
2022-09-18T05:40:42.318Z,-23202.41
2022-09-18T05:43:30.328Z,-23194.16
2022-09-18T05:46:17.315Z,-23198.03
2022-09-18T05:49:06.399Z,-23198.53
2022-09-18T05:51:54.771Z,-23203.84
2022-09-18T05:54:41.633Z,-23210.38
2022-09-18T05:57:28.554Z,-23211.59
2022-09-18T06:00:15.457Z,-23215.22
2022-09-18T06:03:05.317Z,-23213.28
2022-09-18T06:05:53.417Z,-23211.34
2022-09-18T06:08:40.278Z,-23216.91
2022-09-18T06:11:27.543Z,-23222.25
2022-09-18T06:14:14.412Z,-23227.09
2022-09-18T06:17:01.329Z,-23231.44
2022-09-18T06:19:48.205Z,-23216.91
2022-09-18T06:22:36.580Z,-23214.00
2022-09-18T06:25:23.932Z,-23216.91
2022-09-18T06:28:10.787Z,-23233.16
2022-09-18T06:30:58.577Z,-23243.06
2022-09-18T06:33:48.255Z,-23243.81
2022-09-18T06:36:35.207Z,-23249.13
2022-09-18T06:39:22.122Z,-23247.44
2022-09-18T06:42:09.213Z,-23249.84
2022-09-18T06:44:56.052Z,-23249.38
2022-09-18T06:47:42.913Z,-23237.25
2022-09-18T06:50:29.962Z,-23247.44
2022-09-18T06:53:16.775Z,-23256.63
2022-09-18T06:56:03.741Z,-23257.34
2022-09-18T06:58:53.485Z,-23260.50
2022-09-18T07:01:40.465Z,-23265.81
2022-09-18T07:04:27.303Z,-23263.41
2022-09-18T07:07:14.176Z,-23273.56
2022-09-18T07:10:03.598Z,-23271.63
2022-09-18T07:12:57.121Z,-23263.91
2022-09-18T07:15:47.678Z,-23266.78
2022-09-18T07:18:34.918Z,-23270.19
2022-09-18T07:21:21.764Z,-23279.88
2022-09-18T07:24:08.741Z,-23275.03
2022-09-18T07:26:55.697Z,-23272.84
2022-09-18T07:29:42.517Z,-23280.13
2022-09-18T07:32:29.331Z,-23279.38
2022-09-18T07:35:16.345Z,-23276.00
2022-09-18T07:38:05.953Z,-23283.03
2022-09-18T07:40:52.844Z,-23279.13
2022-09-18T07:43:39.689Z,-23287.38
2022-09-18T07:46:26.621Z,-23291.97
2022-09-18T07:49:13.465Z,-23298.75
2022-09-18T07:52:02.017Z,-23291.75
2022-09-18T07:54:48.854Z,-23285.94
2022-09-18T07:57:35.845Z,-23297.06
2022-09-18T08:00:22.707Z,-23299.72
2022-09-18T08:03:12.815Z,-23307.47
2022-09-18T08:05:59.689Z,-23309.91
2022-09-18T08:08:46.905Z,-23318.13
2022-09-18T08:11:33.868Z,-23317.88
2022-09-18T08:14:23.405Z,-23319.09
2022-09-18T08:17:12.301Z,-23324.91
2022-09-18T08:19:59.139Z,-23322.00
2022-09-18T08:22:46.879Z,-23324.44
2022-09-18T08:25:34.064Z,-23331.69
2022-09-18T08:28:21.003Z,-23332.66
2022-09-18T08:31:08.080Z,-23342.84
2022-09-18T08:33:55.248Z,-23344.28
2022-09-18T08:36:42.083Z,-23350.34
2022-09-18T08:39:28.893Z,-23356.66
2022-09-18T08:42:25.925Z,-23344.28
2022-09-18T08:45:15.802Z,-23344.53
2022-09-18T08:48:06.768Z,-23354.72
2022-09-18T08:51:01.756Z,-23359.56
2022-09-18T08:53:55.205Z,-23366.59
2022-09-18T08:56:42.976Z,-23364.41
2022-09-18T08:59:39.294Z,-23370.69
2022-09-18T09:02:37.495Z,-23379.66
2022-09-18T09:05:31.103Z,-23381.13
2022-09-18T09:08:51.944Z,-23387.66
2022-09-18T09:12:03.793Z,-23390.31
2022-09-18T09:15:12.478Z,-23389.13
2022-09-18T09:18:02.219Z,-23396.16
2022-09-18T09:20:53.196Z,-23401.47
2022-09-18T09:23:55.352Z,-23402.19
2022-09-18T09:26:43.214Z,-23405.09
2022-09-18T09:29:39.992Z,-23413.59
2022-09-18T09:32:42.908Z,-23422.78
2022-09-18T09:35:38.546Z,-23428.13
2022-09-18T09:38:41.329Z,-23431.53
2022-09-18T09:41:31.906Z,-23437.09
2022-09-18T09:44:18.724Z,-23445.56
2022-09-18T09:47:30.378Z,-23439.75
2022-09-18T09:50:26.253Z,-23439.28
2022-09-18T09:53:13.468Z,-23434.91
2022-09-18T09:56:17.024Z,-23439.28
2022-09-18T09:59:12.847Z,-23446.06
2022-09-18T10:02:25.775Z,-23445.09
2022-09-18T10:05:38.753Z,-23449.94
2022-09-18T10:08:33.553Z,-23456.72
2022-09-18T10:11:20.603Z,-23448.97
2022-09-18T10:14:17.156Z,-23462.06
2022-09-18T10:17:05.353Z,-23459.16
2022-09-18T10:19:53.543Z,-23457.69
2022-09-18T10:22:40.866Z,-23462.06
2022-09-18T10:25:46.651Z,-23465.44
2022-09-18T10:28:33.583Z,-23462.06
2022-09-18T10:31:20.510Z,-23462.53
2022-09-18T10:34:47.529Z,-23476.59
2022-09-18T10:37:34.340Z,-23484.59
2022-09-18T10:40:37.277Z,-23480.97
2022-09-18T10:43:24.264Z,-23484.38
2022-09-18T10:46:11.543Z,-23481.44
2022-09-18T10:49:03.041Z,-23487.50
2022-09-18T10:52:14.834Z,-23489.22
2022-09-18T10:55:09.048Z,-23495.50
2022-09-18T10:58:13.721Z,-23499.41
2022-09-18T11:01:08.165Z,-23489.44
2022-09-18T11:04:06.508Z,-23498.91
2022-09-18T11:06:54.041Z,-23503.28
2022-09-18T11:09:41.589Z,-23502.78
2022-09-18T11:12:28.523Z,-23505.44
2022-09-18T11:15:19.352Z,-23506.19
2022-09-18T11:18:12.285Z,-23506.19
2022-09-18T11:21:03.985Z,-23508.84
2022-09-18T11:24:05.745Z,-23511.53
2022-09-18T11:26:53.880Z,-23518.78
2022-09-18T11:29:42.303Z,-23507.63
2022-09-18T11:32:31.830Z,-23512.47
2022-09-18T11:35:20.938Z,-23519.25
2022-09-18T11:38:07.929Z,-23528.00
2022-09-18T11:40:57.604Z,-23528.00
2022-09-18T11:43:44.733Z,-23523.16
2022-09-18T11:46:48.116Z,-23529.94
2022-09-18T11:49:45.972Z,-23537.47
2022-09-18T11:52:42.824Z,-23537.69
2022-09-18T11:55:38.529Z,-23538.66
2022-09-18T11:58:34.336Z,-23542.53
2022-09-18T12:01:31.800Z,-23539.66
2022-09-18T12:04:38.610Z,-23542.06
2022-09-18T12:07:38.881Z,-23550.81
2022-09-18T12:10:28.427Z,-23552.72
2022-09-18T12:13:31.294Z,-23553.69
2022-09-18T12:16:44.700Z,-23544.97
2022-09-18T12:19:40.794Z,-23555.16
2022-09-18T12:22:33.869Z,-23558.56
2022-09-18T12:25:44.530Z,-23563.88
2022-09-18T12:28:55.992Z,-23576.50
2022-09-18T12:31:49.023Z,-23575.53
2022-09-18T12:35:14.905Z,-23574.06
2022-09-18T12:38:38.767Z,-23570.69
2022-09-18T12:41:35.155Z,-23574.06
2022-09-18T12:44:28.656Z,-23569.22
2022-09-18T12:47:41.121Z,-23570.69
2022-09-18T12:50:31.228Z,-23569.47
2022-09-18T12:53:50.276Z,-23572.63
2022-09-18T12:56:57.215Z,-23575.28
2022-09-18T13:00:08.934Z,-23572.13
2022-09-18T13:02:58.570Z,-23569.22
2022-09-18T13:05:50.010Z,-23572.13
2022-09-18T13:08:47.205Z,-23584.75
2022-09-18T13:11:41.818Z,-23591.28
2022-09-18T13:14:53.813Z,-23600.25
2022-09-18T13:17:50.072Z,-23598.31
2022-09-18T13:20:39.413Z,-23602.69
2022-09-18T13:23:31.680Z,-23604.88
2022-09-18T13:26:20.971Z,-23606.81
2022-09-18T13:29:26.351Z,-23606.81
2022-09-18T13:32:16.573Z,-23599.06
2022-09-18T13:35:12.705Z,-23603.66
2022-09-18T13:38:08.665Z,-23604.63
2022-09-18T13:41:00.544Z,-23600.50
2022-09-18T13:43:59.695Z,-23609.47
2022-09-18T13:46:47.700Z,-23602.22
2022-09-18T13:49:46.922Z,-23611.91
2022-09-18T13:52:33.808Z,-23611.44
2022-09-18T13:55:22.761Z,-23618.69
2022-09-18T13:58:31.217Z,-23615.78
2022-09-18T14:01:43.025Z,-23621.59
2022-09-18T14:04:39.183Z,-23624.03
2022-09-18T14:07:26.084Z,-23627.44
2022-09-18T14:11:11.296Z,-23621.59
2022-09-18T14:13:57.887Z,-23618.69
2022-09-18T14:16:46.081Z,-23628.88
2022-09-18T14:19:35.705Z,-23638.59
2022-09-18T14:22:25.637Z,-23634.22
2022-09-18T14:25:14.716Z,-23633.25
2022-09-18T14:28:05.427Z,-23645.88
2022-09-18T14:31:32.494Z,-23646.34
2022-09-18T14:34:41.606Z,-23648.28
2022-09-18T14:37:34.907Z,-23641.00
2022-09-18T14:40:24.940Z,-23636.16
2022-09-18T14:43:16.866Z,-23640.53
2022-09-18T14:46:03.893Z,-23644.41
2022-09-18T14:48:51.431Z,-23645.88
2022-09-18T14:52:03.140Z,-23641.00
2022-09-18T14:54:53.688Z,-23648.53
2022-09-18T14:57:46.290Z,-23649.75
2022-09-18T15:00:35.659Z,-23652.16
2022-09-18T15:03:37.404Z,-23647.81
2022-09-18T15:06:32.389Z,-23650.72
2022-09-18T15:09:38.518Z,-23648.53
2022-09-18T15:12:27.440Z,-23653.16
2022-09-18T15:15:40.889Z,-23650.97
2022-09-18T15:18:29.557Z,-23655.09
2022-09-18T15:21:33.599Z,-23657.03
2022-09-18T15:24:21.312Z,-23652.41
2022-09-18T15:27:09.341Z,-23653.16
2022-09-18T15:30:18.726Z,-23655.09
2022-09-18T15:33:12.976Z,-23651.44
2022-09-18T15:36:00.091Z,-23644.41
2022-09-18T15:38:48.078Z,-23641.00
2022-09-18T15:41:45.699Z,-23642.22
2022-09-18T15:44:38.587Z,-23643.22
2022-09-18T15:47:28.551Z,-23647.56
2022-09-18T15:50:15.365Z,-23644.91
2022-09-18T15:53:15.753Z,-23649.50
2022-09-18T15:56:09.064Z,-23645.38
2022-09-18T15:59:01.301Z,-23646.84
2022-09-18T16:01:48.584Z,-23655.56
2022-09-18T16:04:36.075Z,-23659.94
2022-09-18T16:07:29.506Z,-23656.31
2022-09-18T16:10:34.915Z,-23655.09
2022-09-18T16:13:21.735Z,-23652.16
2022-09-18T16:16:08.584Z,-23655.56
2022-09-18T16:19:08.652Z,-23661.66
2022-09-18T16:21:55.669Z,-23668.19
2022-09-18T16:24:42.635Z,-23658.25
2022-09-18T16:27:29.543Z,-23657.53
2022-09-18T16:30:16.659Z,-23653.63
2022-09-18T16:33:17.128Z,-23657.03
2022-09-18T16:36:08.998Z,-23658.47
2022-09-18T16:38:57.304Z,-23656.53
2022-09-18T16:41:44.728Z,-23659.44
2022-09-18T16:44:31.538Z,-23651.22
2022-09-18T16:47:18.964Z,-23655.56
2022-09-18T16:50:06.386Z,-23654.59
2022-09-18T16:52:53.278Z,-23656.53
2022-09-18T16:55:43.898Z,-23663.34
2022-09-18T16:58:30.761Z,-23651.44
2022-09-18T17:01:17.941Z,-23652.91
2022-09-18T17:04:05.202Z,-23644.41
2022-09-18T17:06:52.117Z,-23644.91
2022-09-18T17:09:38.945Z,-23644.16
2022-09-18T17:12:25.853Z,-23644.16
2022-09-18T17:15:12.705Z,-23641.50
2022-09-18T17:17:59.546Z,-23641.25
2022-09-18T17:20:46.417Z,-23630.84
2022-09-18T17:23:33.537Z,-23627.44
2022-09-18T17:26:21.047Z,-23624.53
2022-09-18T17:29:11.126Z,-23623.78
2022-09-18T17:31:58.039Z,-23617.72
2022-09-18T17:34:44.883Z,-23603.19
2022-09-18T17:37:31.870Z,-23594.69
2022-09-18T17:40:21.661Z,-23589.34
2022-09-18T17:43:08.572Z,-23586.69
2022-09-18T17:45:57.121Z,-23582.06
2022-09-18T17:48:44.043Z,-23575.75
2022-09-18T17:51:30.896Z,-23573.09
2022-09-18T17:54:18.107Z,-23563.88
2022-09-18T17:57:11.476Z,-23567.03
2022-09-18T17:59:58.436Z,-23569.47
2022-09-18T18:02:45.472Z,-23564.63
2022-09-18T18:05:32.324Z,-23562.44
2022-09-18T18:08:19.744Z,-23561.94
2022-09-18T18:11:10.402Z,-23558.56
2022-09-18T18:13:57.316Z,-23558.31
2022-09-18T18:16:44.345Z,-23556.13
2022-09-18T18:19:31.250Z,-23552.97
2022-09-18T18:22:18.893Z,-23550.56
2022-09-18T18:25:06.715Z,-23553.69
2022-09-18T18:27:55.292Z,-23549.34
2022-09-18T18:30:45.162Z,-23545.47
2022-09-18T18:33:36.227Z,-23542.31
2022-09-18T18:36:28.352Z,-23546.66
2022-09-18T18:39:15.567Z,-23543.03
2022-09-18T18:42:02.637Z,-23542.53
2022-09-18T18:44:49.513Z,-23537.69
2022-09-18T18:47:37.436Z,-23537.22
2022-09-18T18:50:24.315Z,-23536.25
2022-09-18T18:53:11.191Z,-23531.16
2022-09-18T18:56:03.110Z,-23534.31
2022-09-18T18:58:56.254Z,-23534.06
2022-09-18T19:01:43.509Z,-23528.97
2022-09-18T19:04:30.482Z,-23527.75
2022-09-18T19:07:17.609Z,-23525.34
2022-09-18T19:10:04.725Z,-23527.28
2022-09-18T19:12:57.377Z,-23522.19
2022-09-18T19:15:44.197Z,-23524.59
2022-09-18T19:18:31.058Z,-23522.66
2022-09-18T19:21:18.297Z,-23520.72
2022-09-18T19:24:07.884Z,-23518.78
2022-09-18T19:26:54.789Z,-23510.78
2022-09-18T19:29:42.369Z,-23513.94
2022-09-18T19:32:29.390Z,-23517.81
2022-09-18T19:35:16.378Z,-23518.78
2022-09-18T19:38:03.521Z,-23516.59
2022-09-18T19:40:51.561Z,-23503.03
2022-09-18T19:43:38.713Z,-23504.72
2022-09-18T19:46:29.209Z,-23498.19
2022-09-18T19:49:18.833Z,-23494.53
2022-09-18T19:52:15.963Z,-23491.63
2022-09-18T19:55:02.867Z,-23493.56
2022-09-18T19:57:52.566Z,-23486.53
2022-09-18T20:00:40.687Z,-23474.44
2022-09-18T20:03:27.535Z,-23475.63
2022-09-18T20:06:15.597Z,-23473.69
2022-09-18T20:09:02.568Z,-23474.19
2022-09-18T20:11:49.475Z,-23468.59
2022-09-18T20:14:36.331Z,-23465.69
2022-09-18T20:17:23.408Z,-23461.56
2022-09-18T20:20:15.632Z,-23463.50
2022-09-18T20:23:05.970Z,-23464.00
2022-09-18T20:25:52.977Z,-23454.78
2022-09-18T20:28:39.889Z,-23449.94
2022-09-18T20:31:27.198Z,-23447.75
2022-09-18T20:34:14.093Z,-23443.63
2022-09-18T20:37:01.810Z,-23439.28
2022-09-18T20:39:48.664Z,-23444.38
2022-09-18T20:42:35.595Z,-23448.97
2022-09-18T20:45:22.698Z,-23448.97
2022-09-18T20:48:09.557Z,-23460.59
2022-09-18T20:50:57.717Z,-23458.19
2022-09-18T20:53:45.239Z,-23452.38
2022-09-18T20:56:36.116Z,-23453.81
2022-09-18T20:59:23.911Z,-23452.13
2022-09-18T21:02:10.766Z,-23445.56
2022-09-18T21:04:57.737Z,-23442.44
2022-09-18T21:07:45.692Z,-23439.53
2022-09-18T21:10:32.700Z,-23433.94
2022-09-18T21:13:20.065Z,-23430.31
2022-09-18T21:16:07.018Z,-23427.66
2022-09-18T21:19:00.332Z,-23424.25
2022-09-18T21:21:48.392Z,-23431.78
2022-09-18T21:24:35.227Z,-23426.69
2022-09-18T21:27:22.106Z,-23425.22
2022-09-18T21:30:09.471Z,-23425.94
2022-09-18T21:32:56.896Z,-23424.72
2022-09-18T21:35:51.885Z,-23423.28
2022-09-18T21:38:40.046Z,-23421.09
2022-09-18T21:41:26.928Z,-23417.94
2022-09-18T21:44:21.617Z,-23410.19
2022-09-18T21:47:10.712Z,-23415.03
2022-09-18T21:49:57.590Z,-23412.13
2022-09-18T21:52:44.801Z,-23410.19
2022-09-18T21:55:38.480Z,-23402.94
2022-09-18T21:58:26.001Z,-23401.22
2022-09-18T22:01:21.293Z,-23404.38
2022-09-18T22:04:09.023Z,-23403.41
2022-09-18T22:06:58.108Z,-23396.63
2022-09-18T22:09:45.051Z,-23395.66
2022-09-18T22:12:32.828Z,-23392.50
2022-09-18T22:15:19.710Z,-23391.53
2022-09-18T22:18:06.563Z,-23402.19
2022-09-18T22:20:53.978Z,-23401.72
2022-09-18T22:23:41.333Z,-23394.22
2022-09-18T22:26:28.585Z,-23394.69
2022-09-18T22:29:18.064Z,-23388.88
2022-09-18T22:32:05.156Z,-23390.81
2022-09-18T22:34:53.205Z,-23386.22
2022-09-18T22:37:40.036Z,-23388.63
2022-09-18T22:40:26.929Z,-23393.97
2022-09-18T22:43:14.405Z,-23401.94
2022-09-18T22:46:12.950Z,-23391.78
2022-09-18T22:48:59.797Z,-23392.75
2022-09-18T22:51:47.471Z,-23384.75
2022-09-18T22:54:34.335Z,-23375.78
2022-09-18T22:57:21.168Z,-23370.47
2022-09-18T23:00:08.520Z,-23373.13
2022-09-18T23:02:55.678Z,-23377.97
2022-09-18T23:05:43.076Z,-23378.44
2022-09-18T23:08:31.616Z,-23383.78
2022-09-18T23:11:22.011Z,-23373.38
2022-09-18T23:14:13.372Z,-23376.53
2022-09-18T23:17:01.127Z,-23369.72
2022-09-18T23:19:47.945Z,-23374.34
2022-09-18T23:22:34.757Z,-23374.34
2022-09-18T23:25:21.635Z,-23379.44
2022-09-18T23:28:08.508Z,-23371.91
2022-09-18T23:30:55.332Z,-23369.50
2022-09-18T23:33:43.941Z,-23377.97
2022-09-18T23:36:39.173Z,-23371.91
2022-09-18T23:39:29.145Z,-23357.38
2022-09-18T23:42:15.977Z,-23353.50
2022-09-18T23:45:03.192Z,-23356.41
2022-09-18T23:47:50.003Z,-23346.97
2022-09-18T23:50:36.834Z,-23353.25
2022-09-18T23:53:23.852Z,-23360.28
2022-09-18T23:56:12.875Z,-23353.50
2022-09-18T23:59:02.672Z,-23354.00
